CJP6 weather

Camsell Portage Airport
Camsell Portage, Saskatchewan, Canada

Public forecast

Using degrees Celsius for public forecast. Weather courtesy of forecast.io.

METAR (pilot weather report)

Closest report is Fort Chipewyan Airport, 76.1 nm (141.0 km) SW. Retrieved 2019/05/24 18:00 UTC (20 minutes ago):

CYPY 241800Z AUTO 13009KT 090V160 9SM SCT065 13/02 A2996 RMK SLP159

TAF (pilot weather forecast)

Closest forecast is Fort Chipewyan Airport, 76.1 nm (141.0 km) SW. Retrieved 2019/05/24 18:39 UTC (0 seconds ago):

TAF CYPY 241738Z 2418/2506 13007KT P6SM SKC BECMG 2419/2421 09010KT RMK FCST BASED ON AUTO OBS. NXT FCST BY 250000Z